CMA CGM Thalassa — 5BNE2 — position and weather

sailwx.info

Track history (hours):
 
Tides and Currents Weather Stations Pressure Air Temp Water Temp Dewpoint Dewpoint Depression Visibility Wind Speed Wind Dir Waves Ship Positions

CMA CGM Thalassa

Last reported at 2018-Apr-22 12:22 UTC. Time now 2018-Apr-23 02:10 UTC.
Position N 26°25' E 121°38'.

Length 347 m; draft 9.6 m.

Type: Ship. MMSI: 212151000.

Date/timePositionNaut miles runAvg speedWind from/ knotsBaromVisibWave heightAir tempDewpointWater temp
2018-Apr-22 12:22N 26°25' E 121°38'615.9
2018-Apr-22 12:00N 26°20' E 121°34'8216.0
2018-Apr-22 06:52N 25°23' E 120°29'715.9
2018-Apr-22 06:27N 25°18' E 120°24'715.7
2018-Apr-22 06:00N 25°13' E 120°19'815.7
2018-Apr-22 05:30N 25°07' E 120°14'816.0
2018-Apr-22 05:00N 25°02' E 120°07'816.3
2018-Apr-22 04:30N 24°57' E 119°60'917.0
2018-Apr-22 04:00N 24°52' E 119°52'917.4
2018-Apr-22 03:31N 24°47' E 119°44'917.9
2018-Apr-22 03:00N 24°41' E 119°37'917.6
2018-Apr-22 02:30N 24°35' E 119°30'917.2
2018-Apr-22 02:00N 24°30' E 119°22'816.7
2018-Apr-22 01:30N 24°24' E 119°15'816.3
2018-Apr-22 01:00N 24°18' E 119°09'816.1
2018-Apr-22 00:31N 24°14' E 119°02'815.6
2018-Apr-22 00:00N 24°12' E 118°54'815.9
2018-Apr-21 23:31N 24°10' E 118°45'815.5
2018-Apr-21 23:00N 24°08' E 118°37'715.2
2018-Apr-21 22:30N 24°08' E 118°28'815.7
2018-Apr-21 22:00N 24°11' E 118°21'714.3
2018-Apr-21 21:30N 24°16' E 118°15'713.5
2018-Apr-21 21:00N 24°21' E 118°10'611.3
2018-Apr-21 20:30N 24°25' E 118°05'4 8.7
2018-Apr-21 20:00N 24°27' E 118°01'0 0.4
2018-Apr-21 19:30N 24°27' E 118°01'0 0.0
2018-Apr-21 19:00N 24°27' E 118°01'0 0.0
2018-Apr-21 18:30N 24°27' E 118°01'0 0.0
2018-Apr-21 18:00N 24°27' E 118°01'0 0.0
2018-Apr-21 17:30N 24°27' E 118°01'0 0.0
2018-Apr-21 17:00N 24°27' E 118°01'0 0.0
2018-Apr-21 16:30N 24°27' E 118°01'0 0.0
2018-Apr-21 16:00N 24°27' E 118°01'0 0.0
2018-Apr-21 15:29N 24°27' E 118°01'0 0.0
2018-Apr-21 15:00N 24°27' E 118°01'0 0.0
2018-Apr-21 14:30N 24°27' E 118°01'0 0.0
2018-Apr-21 14:00N 24°27' E 118°01'0 0.0
2018-Apr-21 13:27N 24°27' E 118°01'0 0.0
2018-Apr-21 13:00N 24°27' E 118°01'0 0.0
2018-Apr-21 12:30N 24°27' E 118°01'0 0.0
2018-Apr-21 12:00N 24°27' E 118°01'0 0.3
2018-Apr-21 11:30N 24°27' E 118°01'4 7.7
2018-Apr-21 11:00N 24°25' E 118°05'510.2
2018-Apr-21 10:30N 24°21' E 118°09'612.0
2018-Apr-21 10:00N 24°17' E 118°13'612.7
2018-Apr-21 09:30N 24°12' E 118°18'713.6
2018-Apr-21 09:00N 24°09' E 118°25'815.5
2018-Apr-21 08:30N 24°09' E 118°33'918.4
2018-Apr-21 08:00N 24°10' E 118°43'1019.8
2018-Apr-21 07:30N 24°12' E 118°54'1019.8
2018-Apr-21 06:59N 24°18' E 119°03'4819.8
2018-Apr-21 04:33N 24°47' E 119°45'120.2
2018-Apr-21 04:30N 24°48' E 119°46'1020.1
2018-Apr-21 04:00N 24°53' E 119°56'36220.4
2018-Apr-20 10:13N 30°17' E 122°59'4817.4
2018-Apr-20 07:27N 30°35' E 122°08'16 0.8
2018-Apr-19 10:09N 30°32' E 122°26'1 6.8
2018-Apr-19 09:59N 30°32' E 122°27'14 3.1
2018-Apr-19 05:33N 30°26' E 122°42'0 0.0
2018-Apr-19 05:30N 30°26' E 122°42'0 0.0
2018-Apr-19 03:44N 30°26' E 122°42'0 0.0
2018-Apr-19 03:28N 30°26' E 122°42'0 0.0
2018-Apr-18 16:11N 30°26' E 122°42'0 0.0
2018-Apr-18 16:01N 30°26' E 122°42'0 0.0
2018-Apr-18 14:45N 30°26' E 122°42'0 0.0
2018-Apr-18 14:28N 30°26' E 122°42'0 0.0
2018-Apr-18 13:59N 30°26' E 122°42'0 0.1
2018-Apr-18 13:28N 30°26' E 122°42'0 0.2
2018-Apr-18 12:15N 30°26' E 122°42'0 0.2
2018-Apr-18 11:48N 30°26' E 122°42'0 0.0
2018-Apr-18 11:22N 30°26' E 122°42'0 0.0
2018-Apr-18 09:44N 30°26' E 122°42'0 0.0
2018-Apr-18 09:30N 30°26' E 122°42'0 0.0
2018-Apr-18 08:50N 30°26' E 122°42'0 0.0
2018-Apr-18 08:08N 30°26' E 122°42'0 0.1
2018-Apr-18 08:00N 30°26' E 122°42'0 0.0
2018-Apr-18 02:01N 30°26' E 122°42'0 0.0
2018-Apr-18 01:52N 30°26' E 122°42'0 0.0
2018-Apr-17 16:25N 30°26' E 122°42'0 0.0
2018-Apr-17 16:00N 30°26' E 122°42'0 0.1
2018-Apr-17 15:20N 30°26' E 122°42'0 0.1
2018-Apr-17 15:00N 30°26' E 122°42'0 0.1
2018-Apr-17 14:28N 30°26' E 122°42'0 0.1
2018-Apr-17 13:45N 30°26' E 122°42'0 0.0
2018-Apr-17 13:25N 30°26' E 122°42'0 0.1
2018-Apr-17 12:52N 30°26' E 122°42'0 0.6
2018-Apr-17 12:28N 30°26' E 122°42'0 0.0
2018-Apr-17 09:39N 30°26' E 122°42'  
2018-Apr-14 04:36N 35°01' E 129°19'63518.0
2018-Apr-12 17:16N 41°16' E 140°10'416.5
2018-Apr-12 16:59N 41°19' E 140°15'714.6
2018-Apr-12 16:30N 41°22' E 140°23'815.3
2018-Apr-12 16:00N 41°26' E 140°32'816.7
2018-Apr-12 15:30N 41°32' E 140°40'815.6
2018-Apr-12 15:00N 41°37' E 140°48'714.2
2018-Apr-12 14:30N 41°37' E 140°58'714.0
2018-Apr-12 14:00N 41°37' E 141°07'917.5
2018-Apr-12 13:30N 41°38' E 141°19'816.7
2018-Apr-12 13:00N 41°38' E 141°30'  
Track history (hours):
 
Tides and Currents Weather Stations Pressure Air Temp Water Temp Dewpoint Dewpoint Depression Visibility Wind Speed Wind Dir Waves Ship Positions

CMA CGM Thalassa

Last reported at 2018-Apr-22 12:22 UTC. Time now 2018-Apr-23 02:10 UTC.
Position N 26°25' E 121°38'.

Length 347 m; draft 9.6 m.

Type: Ship. MMSI: 212151000.

Date/timePositionNaut miles runAvg speedWind from/ knotsBaromVisibWave heightAir tempDewpointWater temp
2018-Apr-22 12:22N 26°25' E 121°38'615.9
2018-Apr-22 12:00N 26°20' E 121°34'8216.0
2018-Apr-22 06:52N 25°23' E 120°29'715.9
2018-Apr-22 06:27N 25°18' E 120°24'715.7
2018-Apr-22 06:00N 25°13' E 120°19'815.7
2018-Apr-22 05:30N 25°07' E 120°14'816.0
2018-Apr-22 05:00N 25°02' E 120°07'816.3
2018-Apr-22 04:30N 24°57' E 119°60'917.0
2018-Apr-22 04:00N 24°52' E 119°52'917.4
2018-Apr-22 03:31N 24°47' E 119°44'917.9
2018-Apr-22 03:00N 24°41' E 119°37'917.6
2018-Apr-22 02:30N 24°35' E 119°30'917.2
2018-Apr-22 02:00N 24°30' E 119°22'816.7
2018-Apr-22 01:30N 24°24' E 119°15'816.3
2018-Apr-22 01:00N 24°18' E 119°09'816.1
2018-Apr-22 00:31N 24°14' E 119°02'815.6
2018-Apr-22 00:00N 24°12' E 118°54'815.9
2018-Apr-21 23:31N 24°10' E 118°45'815.5
2018-Apr-21 23:00N 24°08' E 118°37'715.2
2018-Apr-21 22:30N 24°08' E 118°28'815.7
2018-Apr-21 22:00N 24°11' E 118°21'714.3
2018-Apr-21 21:30N 24°16' E 118°15'713.5
2018-Apr-21 21:00N 24°21' E 118°10'611.3
2018-Apr-21 20:30N 24°25' E 118°05'4 8.7
2018-Apr-21 20:00N 24°27' E 118°01'0 0.4
2018-Apr-21 19:30N 24°27' E 118°01'0 0.0
2018-Apr-21 19:00N 24°27' E 118°01'0 0.0
2018-Apr-21 18:30N 24°27' E 118°01'0 0.0
2018-Apr-21 18:00N 24°27' E 118°01'0 0.0
2018-Apr-21 17:30N 24°27' E 118°01'0 0.0
2018-Apr-21 17:00N 24°27' E 118°01'0 0.0
2018-Apr-21 16:30N 24°27' E 118°01'0 0.0
2018-Apr-21 16:00N 24°27' E 118°01'0 0.0
2018-Apr-21 15:29N 24°27' E 118°01'0 0.0
2018-Apr-21 15:00N 24°27' E 118°01'0 0.0
2018-Apr-21 14:30N 24°27' E 118°01'0 0.0
2018-Apr-21 14:00N 24°27' E 118°01'0 0.0
2018-Apr-21 13:27N 24°27' E 118°01'0 0.0
2018-Apr-21 13:00N 24°27' E 118°01'0 0.0
2018-Apr-21 12:30N 24°27' E 118°01'0 0.0
2018-Apr-21 12:00N 24°27' E 118°01'0 0.3
2018-Apr-21 11:30N 24°27' E 118°01'4 7.7
2018-Apr-21 11:00N 24°25' E 118°05'510.2
2018-Apr-21 10:30N 24°21' E 118°09'612.0
2018-Apr-21 10:00N 24°17' E 118°13'612.7
2018-Apr-21 09:30N 24°12' E 118°18'713.6
2018-Apr-21 09:00N 24°09' E 118°25'815.5
2018-Apr-21 08:30N 24°09' E 118°33'918.4
2018-Apr-21 08:00N 24°10' E 118°43'1019.8
2018-Apr-21 07:30N 24°12' E 118°54'1019.8
2018-Apr-21 06:59N 24°18' E 119°03'4819.8
2018-Apr-21 04:33N 24°47' E 119°45'120.2
2018-Apr-21 04:30N 24°48' E 119°46'1020.1
2018-Apr-21 04:00N 24°53' E 119°56'36220.4
2018-Apr-20 10:13N 30°17' E 122°59'4817.4
2018-Apr-20 07:27N 30°35' E 122°08'16 0.8
2018-Apr-19 10:09N 30°32' E 122°26'1 6.8
2018-Apr-19 09:59N 30°32' E 122°27'14 3.1
2018-Apr-19 05:33N 30°26' E 122°42'0 0.0
2018-Apr-19 05:30N 30°26' E 122°42'0 0.0
2018-Apr-19 03:44N 30°26' E 122°42'0 0.0
2018-Apr-19 03:28N 30°26' E 122°42'0 0.0
2018-Apr-18 16:11N 30°26' E 122°42'0 0.0
2018-Apr-18 16:01N 30°26' E 122°42'0 0.0
2018-Apr-18 14:45N 30°26' E 122°42'0 0.0
2018-Apr-18 14:28N 30°26' E 122°42'0 0.0
2018-Apr-18 13:59N 30°26' E 122°42'0 0.1
2018-Apr-18 13:28N 30°26' E 122°42'0 0.2
2018-Apr-18 12:15N 30°26' E 122°42'0 0.2
2018-Apr-18 11:48N 30°26' E 122°42'0 0.0
2018-Apr-18 11:22N 30°26' E 122°42'0 0.0
2018-Apr-18 09:44N 30°26' E 122°42'0 0.0
2018-Apr-18 09:30N 30°26' E 122°42'0 0.0
2018-Apr-18 08:50N 30°26' E 122°42'0 0.0
2018-Apr-18 08:08N 30°26' E 122°42'0 0.1
2018-Apr-18 08:00N 30°26' E 122°42'0 0.0
2018-Apr-18 02:01N 30°26' E 122°42'0 0.0
2018-Apr-18 01:52N 30°26' E 122°42'0 0.0
2018-Apr-17 16:25N 30°26' E 122°42'0 0.0
2018-Apr-17 16:00N 30°26' E 122°42'0 0.1
2018-Apr-17 15:20N 30°26' E 122°42'0 0.1
2018-Apr-17 15:00N 30°26' E 122°42'0 0.1
2018-Apr-17 14:28N 30°26' E 122°42'0 0.1
2018-Apr-17 13:45N 30°26' E 122°42'0 0.0
2018-Apr-17 13:25N 30°26' E 122°42'0 0.1
2018-Apr-17 12:52N 30°26' E 122°42'0 0.6
2018-Apr-17 12:28N 30°26' E 122°42'0 0.0
2018-Apr-17 09:39N 30°26' E 122°42'  
2018-Apr-14 04:36N 35°01' E 129°19'63518.0
2018-Apr-12 17:16N 41°16' E 140°10'416.5
2018-Apr-12 16:59N 41°19' E 140°15'714.6
2018-Apr-12 16:30N 41°22' E 140°23'815.3
2018-Apr-12 16:00N 41°26' E 140°32'816.7
2018-Apr-12 15:30N 41°32' E 140°40'815.6
2018-Apr-12 15:00N 41°37' E 140°48'714.2
2018-Apr-12 14:30N 41°37' E 140°58'714.0
2018-Apr-12 14:00N 41°37' E 141°07'917.5
2018-Apr-12 13:30N 41°38' E 141°19'816.7
2018-Apr-12 13:00N 41°38' E 141°30'  

Dump ship's entire track history